createdAt,value
2022-12-24T00:00:38.434Z,4.18
2022-12-24T00:03:05.091Z,3.58
2022-12-24T00:05:31.652Z,3.88
2022-12-24T00:07:58.002Z,4.72
2022-12-24T00:10:24.422Z,4.10
2022-12-24T00:12:50.845Z,4.32
2022-12-24T00:15:17.295Z,5.03
2022-12-24T00:17:43.645Z,3.35
2022-12-24T00:20:10.308Z,5.28
2022-12-24T00:22:36.786Z,4.50
2022-12-24T00:25:03.289Z,4.43
2022-12-24T00:27:29.666Z,4.30
2022-12-24T00:29:56.174Z,4.43
2022-12-24T00:32:22.545Z,4.40
2022-12-24T00:34:49.017Z,3.60
2022-12-24T00:37:15.383Z,4.40
2022-12-24T00:39:41.773Z,5.22
2022-12-24T00:42:08.238Z,4.50
2022-12-24T00:44:34.602Z,4.13
2022-12-24T00:47:01.933Z,3.95
2022-12-24T00:49:29.859Z,4.22
2022-12-24T00:51:56.266Z,4.60
2022-12-24T00:54:22.666Z,4.35
2022-12-24T00:56:49.080Z,4.65
2022-12-24T00:59:15.579Z,4.03
2022-12-24T01:01:42.217Z,4.93
2022-12-24T01:04:27.540Z,3.42
2022-12-24T01:06:53.982Z,3.72
2022-12-24T01:09:20.393Z,6.30
2022-12-24T01:11:46.982Z,3.70
2022-12-24T01:14:13.370Z,3.47
2022-12-24T01:16:39.861Z,6.10
2022-12-24T01:19:06.301Z,3.80
2022-12-24T01:21:32.708Z,3.90
2022-12-24T01:23:59.150Z,4.50
2022-12-24T01:26:25.551Z,4.78
2022-12-24T01:28:51.979Z,3.75
2022-12-24T01:31:19.719Z,3.72
2022-12-24T01:33:47.108Z,4.05
2022-12-24T01:36:14.299Z,4.97
2022-12-24T01:38:41.092Z,5.38
2022-12-24T01:41:26.445Z,3.03
2022-12-24T01:43:52.861Z,3.85
2022-12-24T01:46:27.292Z,5.13
2022-12-24T01:51:54.688Z,4.15
2022-12-24T01:54:29.708Z,3.30
2022-12-24T01:57:09.431Z,4.35
2022-12-24T01:59:37.918Z,4.50
2022-12-24T02:02:04.870Z,4.80
2022-12-24T02:04:42.828Z,4.50
2022-12-24T02:07:09.264Z,3.92
2022-12-24T02:09:36.986Z,4.40
2022-12-24T02:12:06.056Z,3.40
2022-12-24T02:14:33.662Z,4.10
2022-12-24T02:17:29.501Z,4.55
2022-12-24T02:20:26.445Z,4.15
2022-12-24T02:22:52.789Z,3.15
2022-12-24T02:25:43.548Z,3.92
2022-12-24T02:28:22.301Z,3.70
2022-12-24T02:30:54.787Z,4.65
2022-12-24T02:33:36.176Z,4.90
2022-12-24T02:36:09.768Z,3.50
2022-12-24T02:39:02.895Z,4.20
2022-12-24T02:41:56.383Z,4.97
2022-12-24T02:44:27.443Z,3.28
2022-12-24T02:46:55.024Z,3.88
2022-12-24T02:49:21.540Z,5.15
2022-12-24T02:51:47.938Z,5.05
2022-12-24T02:54:15.215Z,5.80
2022-12-24T02:56:51.158Z,3.78
2022-12-24T02:59:50.613Z,4.80
2022-12-24T03:02:29.031Z,4.75
2022-12-24T03:05:07.309Z,5.40
2022-12-24T03:07:53.885Z,4.80
2022-12-24T03:10:45.028Z,3.88
2022-12-24T03:13:17.704Z,2.97
2022-12-24T03:15:46.013Z,3.25
2022-12-24T03:18:16.899Z,3.53
2022-12-24T03:20:52.879Z,3.88
2022-12-24T03:23:19.514Z,3.40
2022-12-24T03:25:46.302Z,4.53
2022-12-24T03:28:15.384Z,3.70
2022-12-24T03:30:44.311Z,3.75
2022-12-24T03:33:11.882Z,4.38
2022-12-24T03:35:38.444Z,4.78
2022-12-24T03:38:05.210Z,4.07
2022-12-24T03:40:31.676Z,3.38
2022-12-24T03:42:58.692Z,3.85
2022-12-24T03:45:25.133Z,4.22
2022-12-24T03:47:51.616Z,3.45
2022-12-24T03:50:18.006Z,3.50
2022-12-24T03:52:44.397Z,4.00
2022-12-24T03:55:10.858Z,3.65
2022-12-24T03:57:37.316Z,3.60
2022-12-24T04:00:07.205Z,3.88
2022-12-24T04:02:33.763Z,3.58
2022-12-24T04:05:00.314Z,4.20
2022-12-24T04:07:27.093Z,4.15
2022-12-24T04:09:53.480Z,4.93
2022-12-24T04:12:19.815Z,3.67
2022-12-24T04:14:46.269Z,4.10
2022-12-24T04:17:12.659Z,4.53
2022-12-24T04:19:39.080Z,3.63
2022-12-24T04:22:05.503Z,3.75
2022-12-24T04:24:31.898Z,4.38
2022-12-24T04:26:58.271Z,4.30
2022-12-24T04:29:24.651Z,3.85
2022-12-24T04:31:51.145Z,4.50
2022-12-24T04:34:17.588Z,3.17
2022-12-24T04:36:43.977Z,4.50
2022-12-24T04:39:10.347Z,4.95
2022-12-24T04:41:36.784Z,3.97
2022-12-24T04:44:03.267Z,3.63
2022-12-24T04:46:33.674Z,5.45
2022-12-24T04:49:00.133Z,3.97
2022-12-24T04:51:27.878Z,3.53
2022-12-24T04:53:55.647Z,3.08
2022-12-24T04:56:27.645Z,2.70
2022-12-24T04:58:54.410Z,3.88
2022-12-24T05:01:23.918Z,4.07
2022-12-24T05:03:51.472Z,4.32
2022-12-24T05:06:21.172Z,3.97
2022-12-24T05:08:48.397Z,2.72
2022-12-24T05:11:15.684Z,3.13
2022-12-24T05:13:47.439Z,3.53
2022-12-24T05:16:15.878Z,3.60
2022-12-24T05:18:42.671Z,2.88
2022-12-24T05:21:21.415Z,2.38
2022-12-24T05:24:06.376Z,4.53
2022-12-24T05:26:43.506Z,4.65
2022-12-24T05:29:12.274Z,4.63
2022-12-24T05:31:40.182Z,3.17
2022-12-24T05:34:07.874Z,4.50
2022-12-24T05:36:34.323Z,4.60
2022-12-24T05:39:00.891Z,5.60
2022-12-24T05:41:27.669Z,3.83
2022-12-24T05:43:54.093Z,5.72
2022-12-24T05:46:22.311Z,3.00
2022-12-24T05:48:49.963Z,3.95
2022-12-24T05:51:22.132Z,3.67
2022-12-24T05:53:50.088Z,4.15
2022-12-24T05:56:20.178Z,3.55
2022-12-24T05:58:46.665Z,4.13
2022-12-24T06:01:14.224Z,3.50
2022-12-24T06:03:40.718Z,4.65
2022-12-24T06:06:13.365Z,3.10
2022-12-24T06:08:41.300Z,3.88
2022-12-24T06:11:11.928Z,5.18
2022-12-24T06:13:39.320Z,5.22
2022-12-24T06:16:08.250Z,4.82
2022-12-24T06:18:35.884Z,2.53
2022-12-24T06:21:03.566Z,3.45
2022-12-24T06:23:31.494Z,4.00
2022-12-24T06:26:00.974Z,3.85
2022-12-24T06:28:28.985Z,2.95
2022-12-24T06:31:02.123Z,5.55
2022-12-24T06:33:29.786Z,4.65
2022-12-24T06:35:56.362Z,4.28
2022-12-24T06:38:22.903Z,4.32
2022-12-24T06:40:49.362Z,2.92
2022-12-24T06:43:15.843Z,3.92
2022-12-24T06:45:47.203Z,4.82
2022-12-24T06:48:14.534Z,3.03
2022-12-24T06:50:41.623Z,3.90
2022-12-24T06:53:08.355Z,4.60
2022-12-24T06:55:34.874Z,4.75
2022-12-24T06:58:01.309Z,3.33
2022-12-24T07:00:27.801Z,2.88
2022-12-24T07:02:54.261Z,3.70
2022-12-24T07:05:20.666Z,2.63
2022-12-24T07:07:47.110Z,3.75
2022-12-24T07:10:15.847Z,3.95
2022-12-24T07:12:43.017Z,4.53
2022-12-24T07:15:11.555Z,3.15
2022-12-24T07:17:38.568Z,3.85
2022-12-24T07:20:06.730Z,3.33
2022-12-24T07:22:33.288Z,2.85
2022-12-24T07:24:59.692Z,4.45
2022-12-24T07:27:26.126Z,5.05
2022-12-24T07:29:52.636Z,3.50
2022-12-24T07:32:20.450Z,3.15
2022-12-24T07:34:46.884Z,3.42
2022-12-24T07:37:13.467Z,3.80
2022-12-24T07:39:39.914Z,4.40
2022-12-24T07:42:07.956Z,4.95
2022-12-24T07:44:35.101Z,3.63
2022-12-24T07:47:01.934Z,3.40
2022-12-24T07:49:28.594Z,3.42
2022-12-24T07:51:55.334Z,4.07
2022-12-24T07:54:21.915Z,4.47
2022-12-24T07:56:48.483Z,5.38
2022-12-24T07:59:15.040Z,3.60
2022-12-24T08:01:41.871Z,3.60
2022-12-24T08:04:08.464Z,3.33
2022-12-24T08:06:34.949Z,3.47
2022-12-24T08:09:01.367Z,2.97
2022-12-24T08:11:27.835Z,3.28
2022-12-24T08:13:54.558Z,3.45
2022-12-24T08:16:21.290Z,3.28
2022-12-24T08:18:47.737Z,4.07
2022-12-24T08:21:14.209Z,4.10
2022-12-24T08:23:41.444Z,5.13
2022-12-24T08:26:09.036Z,4.43
2022-12-24T08:28:36.101Z,5.20
2022-12-24T08:31:02.809Z,4.55
2022-12-24T08:33:29.375Z,3.53
2022-12-24T08:35:56.322Z,5.10
2022-12-24T08:38:23.086Z,4.00
2022-12-24T08:40:50.374Z,3.38
2022-12-24T08:43:17.817Z,4.25
2022-12-24T08:45:45.024Z,4.68
2022-12-24T08:48:12.092Z,4.85
2022-12-24T08:50:39.998Z,5.15
2022-12-24T08:53:06.721Z,3.92
2022-12-24T08:55:33.156Z,3.85
2022-12-24T08:58:00.363Z,4.07
2022-12-24T09:00:27.268Z,3.47
2022-12-24T09:03:38.319Z,3.80
2022-12-24T09:06:05.799Z,4.78
2022-12-24T09:08:33.173Z,3.30
2022-12-24T09:11:15.966Z,3.92
2022-12-24T09:13:43.134Z,3.97
2022-12-24T09:16:09.728Z,3.28
2022-12-24T09:18:36.732Z,4.30
2022-12-24T09:21:08.933Z,3.50
2022-12-24T09:23:39.590Z,2.80
2022-12-24T09:26:12.067Z,3.03
2022-12-24T09:28:38.534Z,4.88
2022-12-24T09:31:05.852Z,3.55
2022-12-24T09:33:36.307Z,2.90
2022-12-24T09:36:03.535Z,3.55
2022-12-24T09:38:30.713Z,3.58
2022-12-24T09:41:01.146Z,4.50
2022-12-24T09:43:34.022Z,3.13
2022-12-24T09:46:13.770Z,4.30
2022-12-24T09:48:48.483Z,4.00
2022-12-24T09:51:30.172Z,5.50
2022-12-24T09:54:26.914Z,4.93
2022-12-24T09:56:55.301Z,3.42
2022-12-24T09:59:25.553Z,3.83
2022-12-24T10:01:54.572Z,4.97
2022-12-24T10:04:26.870Z,4.00
2022-12-24T10:07:20.690Z,3.30
2022-12-24T10:10:26.026Z,3.70
2022-12-24T10:13:19.051Z,3.13
2022-12-24T10:15:59.585Z,3.22
2022-12-24T10:18:41.907Z,4.18
2022-12-24T10:21:25.258Z,3.38
2022-12-24T10:24:00.497Z,5.47
2022-12-24T10:26:32.228Z,3.55
2022-12-24T10:29:05.340Z,3.00
2022-12-24T10:31:36.068Z,3.72
2022-12-24T10:34:13.287Z,4.18
2022-12-24T10:36:39.666Z,3.78
2022-12-24T10:39:18.465Z,4.30
2022-12-24T10:41:48.119Z,3.03
2022-12-24T10:44:17.935Z,3.30
2022-12-24T10:46:46.152Z,2.80
2022-12-24T10:49:20.254Z,3.13
2022-12-24T10:51:49.682Z,4.18
2022-12-24T10:54:27.087Z,3.00
2022-12-24T10:57:00.129Z,2.85
2022-12-24T10:59:28.225Z,3.78
2022-12-24T11:01:56.767Z,2.47
2022-12-24T11:04:44.457Z,2.83
2022-12-24T11:07:20.371Z,3.47
2022-12-24T11:09:55.214Z,2.58
2022-12-24T11:13:00.198Z,2.38
2022-12-24T11:15:37.014Z,2.28
2022-12-24T11:18:06.482Z,2.33
2022-12-24T11:20:35.297Z,2.42
2022-12-24T11:23:02.427Z,2.45
2022-12-24T11:25:34.031Z,2.78
2022-12-24T11:28:19.281Z,2.40
2022-12-24T11:30:59.939Z,2.28
2022-12-24T11:33:27.403Z,2.25
2022-12-24T11:36:01.667Z,2.33
2022-12-24T11:38:29.369Z,1.98
2022-12-24T11:41:13.830Z,2.85
2022-12-24T11:43:45.752Z,3.25
2022-12-24T11:46:15.238Z,2.35
2022-12-24T11:48:41.687Z,2.60
2022-12-24T11:51:23.659Z,2.10
2022-12-24T11:53:58.722Z,2.55
2022-12-24T11:56:32.157Z,3.03
2022-12-24T11:59:28.621Z,1.65
2022-12-24T12:02:13.650Z,3.30
2022-12-24T12:04:43.648Z,2.55
2022-12-24T12:07:22.661Z,2.50
2022-12-24T12:10:04.012Z,2.20
2022-12-24T12:12:36.344Z,1.95
2022-12-24T12:15:08.789Z,2.60
2022-12-24T12:17:50.378Z,2.03
2022-12-24T12:20:23.097Z,2.75
2022-12-24T12:23:07.648Z,2.08
2022-12-24T12:25:55.298Z,2.40
2022-12-24T12:28:26.943Z,2.35
2022-12-24T12:31:42.715Z,2.45
2022-12-24T12:36:52.403Z,2.35
2022-12-24T12:39:19.115Z,2.13
2022-12-24T12:42:08.454Z,2.67
2022-12-24T12:44:56.480Z,2.33
2022-12-24T12:47:41.942Z,2.47
2022-12-24T12:50:18.777Z,2.03
2022-12-24T12:53:12.588Z,2.45
2022-12-24T12:55:59.402Z,2.47
2022-12-24T12:58:39.606Z,2.65
2022-12-24T13:01:49.480Z,2.80
2022-12-24T13:04:38.348Z,1.92
2022-12-24T13:07:22.739Z,2.20
2022-12-24T13:10:32.211Z,1.83
2022-12-24T13:13:35.193Z,2.58
2022-12-24T13:16:30.183Z,2.33
2022-12-24T13:19:38.056Z,2.58
2022-12-24T13:22:05.732Z,2.33
2022-12-24T13:24:32.796Z,3.22
2022-12-24T13:27:18.632Z,1.88
2022-12-24T13:30:23.978Z,1.80
2022-12-24T13:32:55.035Z,2.60
2022-12-24T13:35:21.466Z,1.25
2022-12-24T13:37:48.857Z,1.83
2022-12-24T13:40:15.769Z,2.10
2022-12-24T13:43:06.225Z,2.88
2022-12-24T13:45:38.611Z,1.92
2022-12-24T13:48:10.964Z,1.95
2022-12-24T13:50:53.927Z,1.85
2022-12-24T13:53:39.748Z,3.58
2022-12-24T13:56:12.225Z,2.78
2022-12-24T13:58:42.795Z,2.20
2022-12-24T14:01:13.408Z,3.38
2022-12-24T14:03:51.185Z,1.80
2022-12-24T14:06:37.021Z,2.10
2022-12-24T14:09:25.226Z,2.63
2022-12-24T14:11:56.078Z,1.75
2022-12-24T14:14:34.620Z,1.67
2022-12-24T14:17:15.330Z,1.77
2022-12-24T14:19:46.105Z,1.75
2022-12-24T14:22:36.044Z,2.50
2022-12-24T14:25:13.276Z,2.13
2022-12-24T14:27:43.329Z,1.85
2022-12-24T14:30:18.634Z,2.10
2022-12-24T14:32:46.101Z,1.98
2022-12-24T14:35:19.692Z,2.33
2022-12-24T14:37:49.385Z,3.20
2022-12-24T14:40:19.871Z,2.75
2022-12-24T14:43:14.087Z,1.85
2022-12-24T14:45:44.732Z,2.60
2022-12-24T14:48:45.508Z,3.42
2022-12-24T14:51:46.357Z,2.85
2022-12-24T14:54:33.643Z,2.58
2022-12-24T14:57:12.301Z,3.78
2022-12-24T14:59:52.432Z,4.32
2022-12-24T15:02:38.023Z,2.40
2022-12-24T15:05:04.522Z,2.58
2022-12-24T15:07:33.525Z,2.75
2022-12-24T15:10:01.576Z,3.53
2022-12-24T15:12:28.137Z,2.15
2022-12-24T15:14:54.668Z,2.60
2022-12-24T15:17:21.174Z,1.88
2022-12-24T15:19:52.542Z,2.30
2022-12-24T15:22:29.707Z,2.70
2022-12-24T15:24:56.283Z,2.45
2022-12-24T15:27:26.116Z,2.42
2022-12-24T15:29:56.100Z,2.72
2022-12-24T15:32:22.815Z,4.05
2022-12-24T15:34:52.114Z,2.08
2022-12-24T15:37:28.116Z,3.10
2022-12-24T15:39:59.296Z,2.00
2022-12-24T15:42:27.531Z,2.45
2022-12-24T15:45:05.927Z,2.53
2022-12-24T15:47:38.487Z,2.22
2022-12-24T15:50:22.401Z,2.20
2022-12-24T15:53:19.906Z,2.38
2022-12-24T15:55:46.080Z,2.70
2022-12-24T15:58:28.053Z,2.65
2022-12-24T16:01:17.813Z,3.25
2022-12-24T16:03:50.185Z,2.72
2022-12-24T16:06:17.465Z,2.22
2022-12-24T16:08:45.478Z,2.15
2022-12-24T16:11:11.980Z,2.70
2022-12-24T16:13:42.281Z,2.97
2022-12-24T16:16:14.627Z,4.45
2022-12-24T16:18:58.749Z,2.75
2022-12-24T16:21:34.850Z,2.93
2022-12-24T16:24:06.431Z,3.33
2022-12-24T16:26:34.494Z,4.18
2022-12-24T16:29:01.291Z,4.53
2022-12-24T16:31:32.900Z,4.72
2022-12-24T16:34:01.341Z,4.82
2022-12-24T16:36:29.677Z,4.40
2022-12-24T16:39:16.254Z,2.95
2022-12-24T16:42:01.582Z,3.50
2022-12-24T16:44:28.013Z,3.95
2022-12-24T16:46:55.932Z,3.42
2022-12-24T16:49:23.246Z,4.13
2022-12-24T16:51:49.655Z,4.38
2022-12-24T16:54:16.234Z,4.43
2022-12-24T16:56:44.329Z,4.93
2022-12-24T16:59:16.686Z,6.47
2022-12-24T17:01:43.227Z,6.03
2022-12-24T17:04:10.037Z,5.28
2022-12-24T17:06:36.609Z,3.72
2022-12-24T17:09:03.666Z,5.30
2022-12-24T17:11:30.171Z,3.90
2022-12-24T17:13:56.613Z,5.35
2022-12-24T17:16:23.287Z,5.60
2022-12-24T17:18:51.966Z,5.32
2022-12-24T17:21:18.929Z,6.35
2022-12-24T17:23:45.518Z,6.85
2022-12-24T17:26:15.008Z,4.55
2022-12-24T17:28:42.819Z,4.53
2022-12-24T17:31:15.152Z,4.18
2022-12-24T17:33:42.533Z,4.15
2022-12-24T17:36:09.207Z,4.43
2022-12-24T17:38:36.271Z,4.40
2022-12-24T17:41:05.305Z,5.20
2022-12-24T17:43:33.136Z,5.20
2022-12-24T17:45:59.605Z,5.18
2022-12-24T17:48:26.003Z,5.15
2022-12-24T17:50:52.493Z,5.28
2022-12-24T17:53:18.913Z,4.35
2022-12-24T17:55:45.359Z,5.28
2022-12-24T17:58:11.962Z,5.10
2022-12-24T18:00:38.718Z,5.53
2022-12-24T18:03:05.401Z,6.70
2022-12-24T18:05:34.811Z,5.85
2022-12-24T18:08:01.312Z,5.80
2022-12-24T18:10:28.336Z,4.65
2022-12-24T18:12:54.751Z,4.57
2022-12-24T18:15:22.556Z,4.93
2022-12-24T18:17:55.923Z,6.10
2022-12-24T18:20:22.996Z,4.07
2022-12-24T18:22:49.660Z,6.85
2022-12-24T18:25:16.201Z,3.88
2022-12-24T18:27:42.634Z,5.53
2022-12-24T18:30:09.932Z,8.07
2022-12-24T18:32:36.987Z,7.85
2022-12-24T18:35:04.385Z,6.20
2022-12-24T18:37:31.033Z,5.57
2022-12-24T18:39:57.739Z,4.30
2022-12-24T18:42:24.415Z,6.68
2022-12-24T18:44:50.938Z,4.90
2022-12-24T18:47:17.829Z,5.53
2022-12-24T18:49:44.244Z,5.97
2022-12-24T18:52:11.722Z,5.93
2022-12-24T18:54:39.900Z,7.43
2022-12-24T18:57:07.086Z,7.10
2022-12-24T18:59:33.828Z,7.50
2022-12-24T19:02:00.320Z,7.78
2022-12-24T19:04:26.842Z,7.55
2022-12-24T19:06:53.720Z,7.50
2022-12-24T19:09:20.829Z,8.48
2022-12-24T19:11:47.296Z,9.18
2022-12-24T19:14:13.823Z,8.05
2022-12-24T19:16:40.867Z,8.23
2022-12-24T19:19:09.011Z,9.80
2022-12-24T19:21:35.477Z,9.77
2022-12-24T19:24:02.112Z,8.32
2022-12-24T19:26:28.556Z,7.72
2022-12-24T19:28:55.192Z,8.40
2022-12-24T19:31:24.233Z,6.65
2022-12-24T19:33:53.767Z,6.88
2022-12-24T19:36:23.784Z,5.30
2022-12-24T19:38:50.349Z,7.47
2022-12-24T19:41:19.485Z,8.98
2022-12-24T19:43:49.158Z,8.20
2022-12-24T19:46:18.587Z,9.07
2022-12-24T19:48:50.261Z,7.65
2022-12-24T19:51:17.457Z,15.93
2022-12-24T19:53:44.282Z,9.55
2022-12-24T19:56:14.006Z,9.93
2022-12-24T19:58:40.369Z,7.78
2022-12-24T20:01:14.765Z,8.82
2022-12-24T20:03:42.398Z,11.52
2022-12-24T20:06:09.049Z,7.45
2022-12-24T20:08:36.993Z,9.02
2022-12-24T20:11:06.453Z,7.95
2022-12-24T20:13:34.235Z,7.63
2022-12-24T20:16:15.872Z,7.88
2022-12-24T20:18:42.539Z,7.70
2022-12-24T20:21:11.610Z,6.55
2022-12-24T20:23:40.067Z,7.22
2022-12-24T20:26:08.718Z,8.07
2022-12-24T20:28:36.804Z,10.70
2022-12-24T20:31:15.226Z,10.65
2022-12-24T20:33:43.562Z,8.23
2022-12-24T20:36:11.060Z,8.82
2022-12-24T20:38:38.683Z,8.90
2022-12-24T20:41:05.972Z,9.07
2022-12-24T20:43:37.192Z,8.98
2022-12-24T20:46:05.345Z,8.93
2022-12-24T20:48:31.839Z,9.88
2022-12-24T20:50:58.904Z,8.43
2022-12-24T20:53:26.641Z,9.57
2022-12-24T20:55:53.846Z,11.10
2022-12-24T20:58:20.759Z,11.63
2022-12-24T21:00:48.070Z,10.90
2022-12-24T21:03:15.780Z,11.68
2022-12-24T21:05:42.434Z,9.65
2022-12-24T21:08:10.086Z,11.55
2022-12-24T21:10:37.753Z,13.80
2022-12-24T21:13:04.955Z,11.23
2022-12-24T21:15:39.511Z,10.13
2022-12-24T21:20:42.791Z,10.60
2022-12-24T21:23:09.918Z,12.55
2022-12-24T21:25:36.336Z,14.07
2022-12-24T21:28:02.781Z,10.68
2022-12-24T21:30:29.281Z,10.30
2022-12-24T21:32:55.778Z,9.93
2022-12-24T21:35:22.262Z,12.48
2022-12-24T21:37:48.645Z,10.25
2022-12-24T21:40:15.048Z,10.73
2022-12-24T21:42:41.541Z,9.60
2022-12-24T21:45:08.755Z,10.68
2022-12-24T21:47:36.715Z,11.18
2022-12-24T21:50:22.617Z,11.55
2022-12-24T21:53:10.961Z,10.52
2022-12-24T21:55:37.300Z,12.68
2022-12-24T21:58:03.706Z,13.20
2022-12-24T22:00:30.648Z,12.77
2022-12-24T22:02:58.451Z,12.77
2022-12-24T22:05:26.188Z,14.73
2022-12-24T22:08:12.561Z,13.98
2022-12-24T22:10:58.027Z,12.27
2022-12-24T22:13:25.504Z,11.88
2022-12-24T22:15:54.212Z,12.38
2022-12-24T22:18:23.312Z,13.25
2022-12-24T22:20:50.481Z,10.40
2022-12-24T22:23:18.540Z,12.23
2022-12-24T22:25:45.672Z,13.23
2022-12-24T22:28:12.153Z,11.00
2022-12-24T22:30:40.519Z,12.60
2022-12-24T22:33:07.921Z,12.82
2022-12-24T22:35:38.739Z,11.48
2022-12-24T22:38:05.523Z,10.50
2022-12-24T22:40:31.975Z,11.45
2022-12-24T22:42:58.500Z,12.02
2022-12-24T22:45:24.890Z,11.30
2022-12-24T22:47:51.299Z,12.23
2022-12-24T22:50:17.848Z,10.80
2022-12-24T22:52:44.516Z,10.77
2022-12-24T22:55:10.907Z,10.10
2022-12-24T22:57:37.340Z,10.77
2022-12-24T23:00:10.931Z,9.70
2022-12-24T23:02:37.429Z,8.68
2022-12-24T23:05:04.134Z,8.55
2022-12-24T23:07:30.538Z,9.80
2022-12-24T23:09:57.070Z,10.57
2022-12-24T23:12:43.558Z,10.50
2022-12-24T23:15:10.388Z,10.30
2022-12-24T23:17:36.826Z,11.30
2022-12-24T23:20:03.769Z,11.25
2022-12-24T23:22:30.156Z,11.88
2022-12-24T23:24:56.651Z,11.68
2022-12-24T23:27:23.057Z,12.65
2022-12-24T23:29:49.439Z,11.65
2022-12-24T23:32:15.842Z,10.50
2022-12-24T23:34:42.361Z,12.90
2022-12-24T23:37:08.776Z,11.20
2022-12-24T23:39:35.196Z,11.35
2022-12-24T23:42:01.611Z,10.25
2022-12-24T23:44:32.159Z,11.15
2022-12-24T23:46:59.112Z,12.63
2022-12-24T23:49:26.715Z,11.95
2022-12-24T23:51:53.249Z,10.93
2022-12-24T23:54:19.662Z,12.73
2022-12-24T23:56:46.165Z,12.02
2022-12-24T23:59:12.643Z,11.88
